Airfield :
LOGIN :

Register | Disclaimer

   EN    FR    IT 

 










Legend :    VFR   Marginal VFR   IFR   Intensive IFR   Very Intensive IFR
Visi :
Ceiling :
>= 8 km
>= 3000ft
5 to 8 km
1000 to 3000 ft
1500m to 5 km
500 to 1000 ft
800 to 1500m
200 to 500 ft
< 800m
< 200 ft
Symbols :   Thunderstorms  Fog  Heavy snow  Heavy precipitations  Wind > 20 kt
SIGMETs :     Misc.  Thunderstorms  Icing  Turbulence  Mountain Waves  Volcanic Ashes







- Airport Elevation : 978 ft
- IATA code : LNZ


LOWL - Linz

CURRENT METAR :
  • 191750Z AUTO 24004KT 9000 FEW180 BKN200 03/00 Q1022 NOSIG

EXPIRED METARs :
  • 191720Z AUTO 22004KT 9999 FEW210 SCT220 03/00 Q1022 NOSIG
  • 191650Z AUTO 24003KT 9999 NCD 03/00 Q1022 NOSIG
  • 191620Z AUTO 29004KT 9999 NCD 03/00 Q1022 NOSIG
  • 191550Z 30006KT CAVOK 05/01 Q1022 NOSIG

TAF TAF LOWL
Valid from the 19 at 18:00 until the 20 at 18:00 UTC


191715Z 1918/2018 28005KT 9000 FEW015 TX07/2015Z TN00/1922Z
TEMPO 1920/2002 VRB02KT 3000 BR BKN100
BECMG 1923/2002 26006KT 5000 -RA BKN030
TEMPO 2012/2018 28012KT 9999 NSW SCT035
No reported NOTAMs for that airfield.



MET'MAP, your aeronautical weather chart ! - Copyright ORBIFLY December 2007 - Disclaimer

ORBIFLY MET'MAP TEAM :

Programming & Development : Alexandra Zaïnal
Concept & Development : Baudouin d'Aumeries
Co-Development & Prog : Marc-Olivier Méhu
Technical & hardware support : Manuel Goepfert

Contact : metmap@orbifly.com




SOURCES & CREDITS :

   NOAA